sensor_id;sensor_type;location;lat;lon;timestamp;P1;durP1;ratioP1;P2;durP2;ratioP2
74523;SDS011;63074;44.696;10.358;2023-06-04T00:00:18;10.30;;;4.80;;
74523;SDS011;63074;44.696;10.358;2023-06-04T00:02:45;7.88;;;4.28;;
74523;SDS011;63074;44.696;10.358;2023-06-04T00:05:11;12.30;;;4.75;;
74523;SDS011;63074;44.696;10.358;2023-06-04T00:07:37;7.50;;;4.43;;
74523;SDS011;63074;44.696;10.358;2023-06-04T00:10:04;9.55;;;5.28;;
74523;SDS011;63074;44.696;10.358;2023-06-04T00:12:30;12.60;;;7.47;;
74523;SDS011;63074;44.696;10.358;2023-06-04T00:14:56;10.68;;;5.50;;
74523;SDS011;63074;44.696;10.358;2023-06-04T00:17:23;10.70;;;5.68;;
74523;SDS011;63074;44.696;10.358;2023-06-04T00:19:49;9.52;;;6.80;;
74523;SDS011;63074;44.696;10.358;2023-06-04T00:22:15;8.50;;;5.50;;
74523;SDS011;63074;44.696;10.358;2023-06-04T00:24:42;12.63;;;7.80;;
74523;SDS011;63074;44.696;10.358;2023-06-04T00:27:09;10.32;;;6.28;;
74523;SDS011;63074;44.696;10.358;2023-06-04T00:29:36;12.32;;;7.93;;
74523;SDS011;63074;44.696;10.358;2023-06-04T00:32:02;12.30;;;7.50;;
74523;SDS011;63074;44.696;10.358;2023-06-04T00:34:29;14.02;;;8.35;;
74523;SDS011;63074;44.696;10.358;2023-06-04T00:36:55;17.88;;;10.55;;
74523;SDS011;63074;44.696;10.358;2023-06-04T00:39:21;17.35;;;11.57;;
74523;SDS011;63074;44.696;10.358;2023-06-04T00:41:47;17.23;;;10.35;;
74523;SDS011;63074;44.696;10.358;2023-06-04T00:44:13;17.77;;;10.75;;
74523;SDS011;63074;44.696;10.358;2023-06-04T00:46:39;26.35;;;12.75;;
74523;SDS011;63074;44.696;10.358;2023-06-04T00:49:06;18.88;;;11.30;;
74523;SDS011;63074;44.696;10.358;2023-06-04T00:51:32;18.08;;;10.63;;
74523;SDS011;63074;44.696;10.358;2023-06-04T00:53:58;19.70;;;11.35;;
74523;SDS011;63074;44.696;10.358;2023-06-04T00:56:27;19.75;;;9.88;;
74523;SDS011;63074;44.696;10.358;2023-06-04T00:58:53;16.67;;;10.10;;
74523;SDS011;63074;44.696;10.358;2023-06-04T01:01:22;12.88;;;8.48;;
74523;SDS011;63074;44.696;10.358;2023-06-04T01:03:57;12.55;;;7.53;;
74523;SDS011;63074;44.696;10.358;2023-06-04T01:06:38;14.60;;;6.65;;
74523;SDS011;63074;44.696;10.358;2023-06-04T01:09:08;11.75;;;6.78;;
74523;SDS011;63074;44.696;10.358;2023-06-04T01:11:39;13.05;;;6.45;;
74523;SDS011;63074;44.696;10.358;2023-06-04T01:14:06;11.65;;;6.65;;
74523;SDS011;63074;44.696;10.358;2023-06-04T01:16:49;13.63;;;7.93;;
74523;SDS011;63074;44.696;10.358;2023-06-04T01:25:17;19.08;;;9.90;;
74523;SDS011;63074;44.696;10.358;2023-06-04T01:27:53;15.40;;;8.77;;
74523;SDS011;63074;44.696;10.358;2023-06-04T01:30:25;16.20;;;9.68;;
74523;SDS011;63074;44.696;10.358;2023-06-04T01:32:57;35.58;;;12.35;;
74523;SDS011;63074;44.696;10.358;2023-06-04T01:35:25;41.22;;;14.75;;
74523;SDS011;63074;44.696;10.358;2023-06-04T01:37:52;40.40;;;14.85;;
74523;SDS011;63074;44.696;10.358;2023-06-04T01:40:19;38.28;;;15.98;;
74523;SDS011;63074;44.696;10.358;2023-06-04T01:42:46;35.40;;;14.90;;
74523;SDS011;63074;44.696;10.358;2023-06-04T01:45:12;36.47;;;15.43;;
74523;SDS011;63074;44.696;10.358;2023-06-04T01:47:38;33.13;;;13.82;;
74523;SDS011;63074;44.696;10.358;2023-06-04T01:50:05;34.15;;;13.75;;
74523;SDS011;63074;44.696;10.358;2023-06-04T01:52:38;31.23;;;14.60;;
74523;SDS011;63074;44.696;10.358;2023-06-04T01:55:05;30.88;;;13.98;;
74523;SDS011;63074;44.696;10.358;2023-06-04T01:57:33;29.58;;;13.30;;
74523;SDS011;63074;44.696;10.358;2023-06-04T02:00:01;34.05;;;13.18;;
74523;SDS011;63074;44.696;10.358;2023-06-04T02:02:29;31.77;;;14.13;;
74523;SDS011;63074;44.696;10.358;2023-06-04T02:04:56;30.02;;;12.38;;
74523;SDS011;63074;44.696;10.358;2023-06-04T02:07:22;31.17;;;14.05;;
74523;SDS011;63074;44.696;10.358;2023-06-04T02:09:48;28.52;;;13.75;;
74523;SDS011;63074;44.696;10.358;2023-06-04T02:12:15;25.88;;;12.25;;
74523;SDS011;63074;44.696;10.358;2023-06-04T02:14:41;31.90;;;14.13;;
74523;SDS011;63074;44.696;10.358;2023-06-04T02:17:10;21.15;;;10.98;;
74523;SDS011;63074;44.696;10.358;2023-06-04T02:19:44;23.42;;;11.65;;
74523;SDS011;63074;44.696;10.358;2023-06-04T02:22:14;20.73;;;10.20;;
74523;SDS011;63074;44.696;10.358;2023-06-04T02:24:44;24.85;;;11.05;;
74523;SDS011;63074;44.696;10.358;2023-06-04T02:27:11;21.98;;;10.07;;
74523;SDS011;63074;44.696;10.358;2023-06-04T02:29:39;21.65;;;9.82;;
74523;SDS011;63074;44.696;10.358;2023-06-04T02:32:06;22.27;;;11.07;;
74523;SDS011;63074;44.696;10.358;2023-06-04T02:34:33;27.58;;;11.32;;
74523;SDS011;63074;44.696;10.358;2023-06-04T02:36:59;25.27;;;11.40;;
74523;SDS011;63074;44.696;10.358;2023-06-04T02:39:26;21.88;;;9.85;;
74523;SDS011;63074;44.696;10.358;2023-06-04T02:41:52;21.90;;;9.45;;
74523;SDS011;63074;44.696;10.358;2023-06-04T02:44:18;28.58;;;10.80;;
74523;SDS011;63074;44.696;10.358;2023-06-04T02:46:45;23.38;;;10.88;;
74523;SDS011;63074;44.696;10.358;2023-06-04T02:49:11;23.60;;;10.85;;
74523;SDS011;63074;44.696;10.358;2023-06-04T02:51:42;24.10;;;11.15;;
74523;SDS011;63074;44.696;10.358;2023-06-04T02:54:08;22.25;;;10.25;;
74523;SDS011;63074;44.696;10.358;2023-06-04T02:56:35;26.08;;;10.15;;
74523;SDS011;63074;44.696;10.358;2023-06-04T02:59:02;21.63;;;10.50;;
74523;SDS011;63074;44.696;10.358;2023-06-04T03:01:29;20.88;;;9.93;;
74523;SDS011;63074;44.696;10.358;2023-06-04T03:03:55;22.60;;;9.10;;
74523;SDS011;63074;44.696;10.358;2023-06-04T03:06:22;24.73;;;10.05;;
74523;SDS011;63074;44.696;10.358;2023-06-04T03:08:49;18.40;;;8.90;;
74523;SDS011;63074;44.696;10.358;2023-06-04T03:11:16;16.10;;;8.23;;
74523;SDS011;63074;44.696;10.358;2023-06-04T03:13:45;17.30;;;9.35;;
74523;SDS011;63074;44.696;10.358;2023-06-04T03:16:12;16.88;;;7.85;;
74523;SDS011;63074;44.696;10.358;2023-06-04T03:18:42;13.88;;;8.07;;
74523;SDS011;63074;44.696;10.358;2023-06-04T03:21:09;14.10;;;7.55;;
74523;SDS011;63074;44.696;10.358;2023-06-04T03:23:36;13.73;;;7.05;;
74523;SDS011;63074;44.696;10.358;2023-06-04T03:26:03;17.40;;;7.55;;
74523;SDS011;63074;44.696;10.358;2023-06-04T03:28:31;15.10;;;6.68;;
74523;SDS011;63074;44.696;10.358;2023-06-04T03:30:58;11.27;;;6.28;;
74523;SDS011;63074;44.696;10.358;2023-06-04T03:33:24;13.35;;;6.53;;
74523;SDS011;63074;44.696;10.358;2023-06-04T03:35:51;14.93;;;7.70;;
74523;SDS011;63074;44.696;10.358;2023-06-04T03:38:20;14.15;;;7.55;;
74523;SDS011;63074;44.696;10.358;2023-06-04T03:43:13;14.27;;;7.40;;
74523;SDS011;63074;44.696;10.358;2023-06-04T03:45:40;14.82;;;8.13;;
74523;SDS011;63074;44.696;10.358;2023-06-04T03:48:06;11.38;;;5.85;;
74523;SDS011;63074;44.696;10.358;2023-06-04T03:50:32;6.53;;;3.95;;
74523;SDS011;63074;44.696;10.358;2023-06-04T03:53:00;8.07;;;4.03;;
74523;SDS011;63074;44.696;10.358;2023-06-04T03:55:26;8.73;;;4.88;;
74523;SDS011;63074;44.696;10.358;2023-06-04T03:57:52;9.00;;;3.80;;
74523;SDS011;63074;44.696;10.358;2023-06-04T04:00:18;9.90;;;4.18;;
74523;SDS011;63074;44.696;10.358;2023-06-04T04:02:45;8.40;;;3.55;;
74523;SDS011;63074;44.696;10.358;2023-06-04T04:05:11;7.80;;;3.72;;
74523;SDS011;63074;44.696;10.358;2023-06-04T04:07:37;9.35;;;3.85;;
74523;SDS011;63074;44.696;10.358;2023-06-04T04:10:03;8.02;;;3.38;;
74523;SDS011;63074;44.696;10.358;2023-06-04T04:12:30;8.73;;;3.53;;
74523;SDS011;63074;44.696;10.358;2023-06-04T04:14:57;7.50;;;4.03;;
74523;SDS011;63074;44.696;10.358;2023-06-04T04:17:23;6.22;;;4.20;;
74523;SDS011;63074;44.696;10.358;2023-06-04T04:19:50;6.53;;;3.85;;
74523;SDS011;63074;44.696;10.358;2023-06-04T04:22:16;5.90;;;3.17;;
74523;SDS011;63074;44.696;10.358;2023-06-04T04:24:43;8.70;;;3.95;;
74523;SDS011;63074;44.696;10.358;2023-06-04T04:27:10;8.40;;;3.63;;
74523;SDS011;63074;44.696;10.358;2023-06-04T04:29:36;8.73;;;4.13;;
74523;SDS011;63074;44.696;10.358;2023-06-04T04:32:03;7.07;;;3.65;;
74523;SDS011;63074;44.696;10.358;2023-06-04T04:34:36;6.38;;;3.45;;
74523;SDS011;63074;44.696;10.358;2023-06-04T04:37:07;6.88;;;3.80;;
74523;SDS011;63074;44.696;10.358;2023-06-04T04:39:34;8.48;;;3.72;;
74523;SDS011;63074;44.696;10.358;2023-06-04T04:42:01;6.18;;;3.50;;
74523;SDS011;63074;44.696;10.358;2023-06-04T04:44:28;7.43;;;3.33;;
74523;SDS011;63074;44.696;10.358;2023-06-04T04:46:54;6.00;;;3.35;;
74523;SDS011;63074;44.696;10.358;2023-06-04T04:49:20;7.65;;;3.53;;
74523;SDS011;63074;44.696;10.358;2023-06-04T04:51:47;8.07;;;4.13;;
74523;SDS011;63074;44.696;10.358;2023-06-04T04:54:14;8.20;;;3.85;;
74523;SDS011;63074;44.696;10.358;2023-06-04T04:56:40;8.35;;;4.50;;
74523;SDS011;63074;44.696;10.358;2023-06-04T04:59:06;6.85;;;3.80;;
74523;SDS011;63074;44.696;10.358;2023-06-04T05:01:32;7.07;;;3.85;;
74523;SDS011;63074;44.696;10.358;2023-06-04T05:03:58;7.22;;;4.28;;
74523;SDS011;63074;44.696;10.358;2023-06-04T05:06:24;9.30;;;4.75;;
74523;SDS011;63074;44.696;10.358;2023-06-04T05:08:50;10.90;;;4.13;;
74523;SDS011;63074;44.696;10.358;2023-06-04T05:11:17;8.13;;;4.10;;
74523;SDS011;63074;44.696;10.358;2023-06-04T05:13:43;9.57;;;4.63;;
74523;SDS011;63074;44.696;10.358;2023-06-04T05:16:10;7.82;;;4.68;;
74523;SDS011;63074;44.696;10.358;2023-06-04T05:18:37;8.68;;;4.05;;
74523;SDS011;63074;44.696;10.358;2023-06-04T05:21:09;11.18;;;6.07;;
74523;SDS011;63074;44.696;10.358;2023-06-04T05:23:37;10.75;;;6.22;;
74523;SDS011;63074;44.696;10.358;2023-06-04T05:26:04;11.52;;;6.22;;
74523;SDS011;63074;44.696;10.358;2023-06-04T05:28:30;10.63;;;5.63;;
74523;SDS011;63074;44.696;10.358;2023-06-04T05:30:59;10.57;;;5.88;;
74523;SDS011;63074;44.696;10.358;2023-06-04T05:33:26;13.07;;;6.70;;
74523;SDS011;63074;44.696;10.358;2023-06-04T05:35:53;10.90;;;6.22;;
74523;SDS011;63074;44.696;10.358;2023-06-04T05:38:19;10.32;;;6.15;;
74523;SDS011;63074;44.696;10.358;2023-06-04T05:40:45;10.30;;;5.13;;
74523;SDS011;63074;44.696;10.358;2023-06-04T05:43:12;9.70;;;6.90;;
74523;SDS011;63074;44.696;10.358;2023-06-04T05:45:38;9.95;;;5.82;;
74523;SDS011;63074;44.696;10.358;2023-06-04T05:48:05;12.90;;;5.63;;
74523;SDS011;63074;44.696;10.358;2023-06-04T05:50:31;9.05;;;5.65;;
74523;SDS011;63074;44.696;10.358;2023-06-04T05:52:57;8.52;;;5.68;;
74523;SDS011;63074;44.696;10.358;2023-06-04T05:55:23;9.85;;;6.68;;
74523;SDS011;63074;44.696;10.358;2023-06-04T05:57:50;9.98;;;6.60;;
74523;SDS011;63074;44.696;10.358;2023-06-04T06:00:17;8.82;;;5.63;;
74523;SDS011;63074;44.696;10.358;2023-06-04T06:02:43;12.30;;;6.43;;
74523;SDS011;63074;44.696;10.358;2023-06-04T06:05:10;11.15;;;6.03;;
74523;SDS011;63074;44.696;10.358;2023-06-04T06:07:37;8.95;;;6.22;;
74523;SDS011;63074;44.696;10.358;2023-06-04T06:10:03;11.20;;;6.13;;
74523;SDS011;63074;44.696;10.358;2023-06-04T06:12:30;10.00;;;5.57;;
74523;SDS011;63074;44.696;10.358;2023-06-04T06:14:56;10.10;;;6.53;;
74523;SDS011;63074;44.696;10.358;2023-06-04T06:17:22;10.32;;;6.22;;
74523;SDS011;63074;44.696;10.358;2023-06-04T06:19:49;9.65;;;6.07;;
74523;SDS011;63074;44.696;10.358;2023-06-04T06:22:15;10.20;;;6.60;;
74523;SDS011;63074;44.696;10.358;2023-06-04T06:24:41;10.52;;;6.32;;
74523;SDS011;63074;44.696;10.358;2023-06-04T06:27:07;16.00;;;8.10;;
74523;SDS011;63074;44.696;10.358;2023-06-04T06:29:33;10.90;;;6.03;;
74523;SDS011;63074;44.696;10.358;2023-06-04T06:32:00;10.45;;;6.68;;
74523;SDS011;63074;44.696;10.358;2023-06-04T06:34:27;10.68;;;6.93;;
74523;SDS011;63074;44.696;10.358;2023-06-04T06:36:53;12.70;;;7.20;;
74523;SDS011;63074;44.696;10.358;2023-06-04T06:39:19;11.07;;;7.22;;
74523;SDS011;63074;44.696;10.358;2023-06-04T06:41:45;13.60;;;7.50;;
74523;SDS011;63074;44.696;10.358;2023-06-04T06:44:11;13.13;;;8.13;;
74523;SDS011;63074;44.696;10.358;2023-06-04T06:46:38;13.25;;;7.88;;
74523;SDS011;63074;44.696;10.358;2023-06-04T06:49:04;14.38;;;7.85;;
74523;SDS011;63074;44.696;10.358;2023-06-04T06:51:30;10.25;;;6.97;;
74523;SDS011;63074;44.696;10.358;2023-06-04T06:53:56;14.77;;;8.05;;
74523;SDS011;63074;44.696;10.358;2023-06-04T06:56:22;12.18;;;7.78;;
74523;SDS011;63074;44.696;10.358;2023-06-04T06:58:49;15.20;;;8.55;;
74523;SDS011;63074;44.696;10.358;2023-06-04T07:01:15;13.52;;;8.80;;
74523;SDS011;63074;44.696;10.358;2023-06-04T07:03:41;15.18;;;8.50;;
74523;SDS011;63074;44.696;10.358;2023-06-04T07:06:07;13.73;;;9.02;;
74523;SDS011;63074;44.696;10.358;2023-06-04T07:08:34;16.48;;;9.05;;
74523;SDS011;63074;44.696;10.358;2023-06-04T07:11:01;11.68;;;7.38;;
74523;SDS011;63074;44.696;10.358;2023-06-04T07:13:28;15.00;;;8.52;;
74523;SDS011;63074;44.696;10.358;2023-06-04T07:15:57;13.00;;;8.02;;
74523;SDS011;63074;44.696;10.358;2023-06-04T07:18:24;14.77;;;9.40;;
74523;SDS011;63074;44.696;10.358;2023-06-04T07:20:50;14.95;;;8.85;;
74523;SDS011;63074;44.696;10.358;2023-06-04T07:23:17;15.57;;;8.65;;
74523;SDS011;63074;44.696;10.358;2023-06-04T07:25:43;15.77;;;7.95;;
74523;SDS011;63074;44.696;10.358;2023-06-04T07:28:11;14.48;;;8.55;;
74523;SDS011;63074;44.696;10.358;2023-06-04T07:30:37;14.57;;;7.72;;
74523;SDS011;63074;44.696;10.358;2023-06-04T07:33:03;16.50;;;9.88;;
74523;SDS011;63074;44.696;10.358;2023-06-04T07:35:31;15.45;;;9.10;;
74523;SDS011;63074;44.696;10.358;2023-06-04T07:37:57;13.52;;;8.40;;
74523;SDS011;63074;44.696;10.358;2023-06-04T07:40:23;14.27;;;8.43;;
74523;SDS011;63074;44.696;10.358;2023-06-04T07:42:49;17.50;;;9.15;;
74523;SDS011;63074;44.696;10.358;2023-06-04T07:45:15;14.25;;;8.82;;
74523;SDS011;63074;44.696;10.358;2023-06-04T07:47:45;14.15;;;8.90;;
74523;SDS011;63074;44.696;10.358;2023-06-04T07:50:11;15.43;;;8.73;;
74523;SDS011;63074;44.696;10.358;2023-06-04T07:52:37;14.68;;;9.30;;
74523;SDS011;63074;44.696;10.358;2023-06-04T07:55:03;16.20;;;10.18;;
74523;SDS011;63074;44.696;10.358;2023-06-04T07:57:30;19.63;;;12.18;;
74523;SDS011;63074;44.696;10.358;2023-06-04T07:59:57;19.98;;;12.15;;
74523;SDS011;63074;44.696;10.358;2023-06-04T08:02:24;22.58;;;12.23;;
74523;SDS011;63074;44.696;10.358;2023-06-04T08:04:51;21.08;;;12.80;;
74523;SDS011;63074;44.696;10.358;2023-06-04T08:07:17;21.15;;;13.07;;
74523;SDS011;63074;44.696;10.358;2023-06-04T08:09:43;20.38;;;12.63;;
74523;SDS011;63074;44.696;10.358;2023-06-04T08:12:10;21.17;;;12.05;;
74523;SDS011;63074;44.696;10.358;2023-06-04T08:14:36;18.88;;;12.50;;
74523;SDS011;63074;44.696;10.358;2023-06-04T08:17:02;18.13;;;11.77;;
74523;SDS011;63074;44.696;10.358;2023-06-04T08:19:29;17.60;;;11.63;;
74523;SDS011;63074;44.696;10.358;2023-06-04T08:21:55;16.90;;;10.60;;
74523;SDS011;63074;44.696;10.358;2023-06-04T08:24:21;19.40;;;11.38;;
74523;SDS011;63074;44.696;10.358;2023-06-04T08:26:48;17.85;;;11.75;;
74523;SDS011;63074;44.696;10.358;2023-06-04T08:29:15;17.95;;;12.20;;
74523;SDS011;63074;44.696;10.358;2023-06-04T08:31:41;18.70;;;12.10;;
74523;SDS011;63074;44.696;10.358;2023-06-04T08:34:07;21.02;;;13.40;;
74523;SDS011;63074;44.696;10.358;2023-06-04T08:36:33;18.10;;;11.65;;
74523;SDS011;63074;44.696;10.358;2023-06-04T08:39:00;17.95;;;11.68;;
74523;SDS011;63074;44.696;10.358;2023-06-04T08:44:04;16.40;;;11.35;;
74523;SDS011;63074;44.696;10.358;2023-06-04T08:46:34;17.10;;;11.80;;
74523;SDS011;63074;44.696;10.358;2023-06-04T08:49:04;16.58;;;11.90;;
74523;SDS011;63074;44.696;10.358;2023-06-04T08:51:32;20.25;;;11.85;;
74523;SDS011;63074;44.696;10.358;2023-06-04T08:54:03;17.98;;;12.07;;
74523;SDS011;63074;44.696;10.358;2023-06-04T08:56:31;17.25;;;12.00;;
74523;SDS011;63074;44.696;10.358;2023-06-04T08:59:02;20.77;;;12.75;;
74523;SDS011;63074;44.696;10.358;2023-06-04T09:01:31;19.73;;;12.48;;
74523;SDS011;63074;44.696;10.358;2023-06-04T09:03:59;15.98;;;10.98;;
74523;SDS011;63074;44.696;10.358;2023-06-04T09:06:26;15.93;;;10.95;;
74523;SDS011;63074;44.696;10.358;2023-06-04T09:08:56;16.73;;;11.75;;
74523;SDS011;63074;44.696;10.358;2023-06-04T09:11:26;16.35;;;11.10;;
74523;SDS011;63074;44.696;10.358;2023-06-04T09:13:59;20.45;;;13.55;;
74523;SDS011;63074;44.696;10.358;2023-06-04T09:16:26;20.25;;;12.90;;
74523;SDS011;63074;44.696;10.358;2023-06-04T09:18:52;21.15;;;13.68;;
74523;SDS011;63074;44.696;10.358;2023-06-04T09:21:19;20.50;;;12.57;;
74523;SDS011;63074;44.696;10.358;2023-06-04T09:23:46;16.67;;;13.02;;
74523;SDS011;63074;44.696;10.358;2023-06-04T09:26:12;16.80;;;11.80;;
74523;SDS011;63074;44.696;10.358;2023-06-04T09:28:43;18.17;;;11.93;;
74523;SDS011;63074;44.696;10.358;2023-06-04T09:31:13;17.95;;;12.90;;
74523;SDS011;63074;44.696;10.358;2023-06-04T09:33:44;21.63;;;13.75;;
74523;SDS011;63074;44.696;10.358;2023-06-04T09:36:14;19.25;;;13.48;;
74523;SDS011;63074;44.696;10.358;2023-06-04T09:38:41;18.50;;;13.60;;
74523;SDS011;63074;44.696;10.358;2023-06-04T09:41:13;18.58;;;13.13;;
74523;SDS011;63074;44.696;10.358;2023-06-04T09:43:41;17.20;;;14.05;;
74523;SDS011;63074;44.696;10.358;2023-06-04T09:46:15;19.90;;;13.35;;
74523;SDS011;63074;44.696;10.358;2023-06-04T09:48:43;20.25;;;13.95;;
74523;SDS011;63074;44.696;10.358;2023-06-04T09:51:11;19.08;;;13.27;;
74523;SDS011;63074;44.696;10.358;2023-06-04T09:53:38;22.08;;;14.25;;
74523;SDS011;63074;44.696;10.358;2023-06-04T09:56:05;18.42;;;14.07;;
74523;SDS011;63074;44.696;10.358;2023-06-04T09:58:32;17.17;;;12.75;;
74523;SDS011;63074;44.696;10.358;2023-06-04T10:01:00;16.05;;;12.88;;
74523;SDS011;63074;44.696;10.358;2023-06-04T10:03:34;17.10;;;13.98;;
74523;SDS011;63074;44.696;10.358;2023-06-04T10:06:05;17.45;;;12.90;;
74523;SDS011;63074;44.696;10.358;2023-06-04T10:08:32;15.90;;;12.13;;
74523;SDS011;63074;44.696;10.358;2023-06-04T10:11:00;18.02;;;14.52;;
74523;SDS011;63074;44.696;10.358;2023-06-04T10:13:28;18.00;;;13.40;;
74523;SDS011;63074;44.696;10.358;2023-06-04T10:16:00;20.05;;;13.50;;
74523;SDS011;63074;44.696;10.358;2023-06-04T10:18:27;16.67;;;12.48;;
74523;SDS011;63074;44.696;10.358;2023-06-04T10:20:55;17.35;;;13.13;;
74523;SDS011;63074;44.696;10.358;2023-06-04T10:23:23;18.38;;;12.88;;
74523;SDS011;63074;44.696;10.358;2023-06-04T10:25:50;16.48;;;12.57;;
74523;SDS011;63074;44.696;10.358;2023-06-04T10:28:20;19.25;;;12.95;;
74523;SDS011;63074;44.696;10.358;2023-06-04T10:30:48;15.73;;;11.90;;
74523;SDS011;63074;44.696;10.358;2023-06-04T10:33:16;17.83;;;12.20;;
74523;SDS011;63074;44.696;10.358;2023-06-04T10:35:45;16.65;;;12.27;;
74523;SDS011;63074;44.696;10.358;2023-06-04T10:38:12;15.02;;;12.05;;
74523;SDS011;63074;44.696;10.358;2023-06-04T10:40:41;17.08;;;12.35;;
74523;SDS011;63074;44.696;10.358;2023-06-04T10:43:09;16.52;;;12.27;;
74523;SDS011;63074;44.696;10.358;2023-06-04T10:45:37;17.65;;;13.48;;
74523;SDS011;63074;44.696;10.358;2023-06-04T10:48:04;16.92;;;12.43;;
74523;SDS011;63074;44.696;10.358;2023-06-04T10:50:32;12.80;;;11.02;;
74523;SDS011;63074;44.696;10.358;2023-06-04T10:53:00;12.88;;;10.90;;
74523;SDS011;63074;44.696;10.358;2023-06-04T10:55:30;18.85;;;16.83;;
74523;SDS011;63074;44.696;10.358;2023-06-04T10:58:00;13.73;;;10.57;;
74523;SDS011;63074;44.696;10.358;2023-06-04T11:00:37;14.65;;;11.05;;
74523;SDS011;63074;44.696;10.358;2023-06-04T11:03:05;15.60;;;11.48;;
74523;SDS011;63074;44.696;10.358;2023-06-04T11:05:35;15.50;;;11.35;;
74523;SDS011;63074;44.696;10.358;2023-06-04T11:08:03;13.93;;;11.80;;
74523;SDS011;63074;44.696;10.358;2023-06-04T11:10:51;13.75;;;11.85;;
74523;SDS011;63074;44.696;10.358;2023-06-04T11:13:22;24.30;;;21.70;;
74523;SDS011;63074;44.696;10.358;2023-06-04T11:15:50;35.92;;;26.83;;
74523;SDS011;63074;44.696;10.358;2023-06-04T11:18:18;16.13;;;13.38;;
74523;SDS011;63074;44.696;10.358;2023-06-04T11:20:49;15.02;;;10.95;;
74523;SDS011;63074;44.696;10.358;2023-06-04T11:23:24;12.10;;;9.73;;
74523;SDS011;63074;44.696;10.358;2023-06-04T11:25:52;12.68;;;9.95;;
74523;SDS011;63074;44.696;10.358;2023-06-04T11:28:18;11.60;;;9.57;;
74523;SDS011;63074;44.696;10.358;2023-06-04T11:31:02;10.10;;;8.50;;
74523;SDS011;63074;44.696;10.358;2023-06-04T11:33:30;11.30;;;9.07;;
74523;SDS011;63074;44.696;10.358;2023-06-04T11:36:09;13.20;;;10.77;;
74523;SDS011;63074;44.696;10.358;2023-06-04T11:38:56;12.82;;;9.80;;
74523;SDS011;63074;44.696;10.358;2023-06-04T11:41:23;13.35;;;9.35;;
74523;SDS011;63074;44.696;10.358;2023-06-04T11:44:01;10.77;;;9.13;;
74523;SDS011;63074;44.696;10.358;2023-06-04T11:46:34;12.98;;;10.27;;
74523;SDS011;63074;44.696;10.358;2023-06-04T11:49:04;10.63;;;9.07;;
74523;SDS011;63074;44.696;10.358;2023-06-04T11:51:31;12.38;;;9.25;;
74523;SDS011;63074;44.696;10.358;2023-06-04T11:53:59;12.82;;;9.75;;
74523;SDS011;63074;44.696;10.358;2023-06-04T11:56:26;12.05;;;9.70;;
74523;SDS011;63074;44.696;10.358;2023-06-04T11:58:54;11.55;;;8.68;;
74523;SDS011;63074;44.696;10.358;2023-06-04T12:01:20;12.60;;;8.82;;
74523;SDS011;63074;44.696;10.358;2023-06-04T12:03:47;11.20;;;9.15;;
74523;SDS011;63074;44.696;10.358;2023-06-04T12:06:17;11.20;;;8.77;;
74523;SDS011;63074;44.696;10.358;2023-06-04T12:08:53;12.60;;;9.52;;
74523;SDS011;63074;44.696;10.358;2023-06-04T12:14:00;10.77;;;9.15;;
74523;SDS011;63074;44.696;10.358;2023-06-04T12:16:31;11.82;;;8.90;;
74523;SDS011;63074;44.696;10.358;2023-06-04T12:19:08;10.90;;;8.85;;
74523;SDS011;63074;44.696;10.358;2023-06-04T12:21:36;9.88;;;8.02;;
74523;SDS011;63074;44.696;10.358;2023-06-04T12:24:10;9.68;;;8.32;;
74523;SDS011;63074;44.696;10.358;2023-06-04T12:26:38;10.82;;;8.45;;
74523;SDS011;63074;44.696;10.358;2023-06-04T12:29:12;12.00;;;10.60;;
74523;SDS011;63074;44.696;10.358;2023-06-04T12:31:45;11.02;;;9.88;;
74523;SDS011;63074;44.696;10.358;2023-06-04T12:34:15;10.93;;;9.30;;
74523;SDS011;63074;44.696;10.358;2023-06-04T12:36:42;11.40;;;9.60;;
74523;SDS011;63074;44.696;10.358;2023-06-04T12:39:08;11.05;;;9.23;;
74523;SDS011;63074;44.696;10.358;2023-06-04T12:41:35;11.52;;;9.13;;
74523;SDS011;63074;44.696;10.358;2023-06-04T12:44:01;13.90;;;9.57;;
74523;SDS011;63074;44.696;10.358;2023-06-04T12:46:27;12.55;;;8.93;;
74523;SDS011;63074;44.696;10.358;2023-06-04T12:48:54;10.68;;;8.38;;
74523;SDS011;63074;44.696;10.358;2023-06-04T12:51:20;11.38;;;9.45;;
74523;SDS011;63074;44.696;10.358;2023-06-04T12:53:47;11.43;;;8.93;;
74523;SDS011;63074;44.696;10.358;2023-06-04T12:56:13;10.50;;;8.15;;
74523;SDS011;63074;44.696;10.358;2023-06-04T12:58:40;9.63;;;8.15;;
74523;SDS011;63074;44.696;10.358;2023-06-04T13:01:06;13.60;;;8.75;;
74523;SDS011;63074;44.696;10.358;2023-06-04T13:03:33;12.35;;;9.55;;
74523;SDS011;63074;44.696;10.358;2023-06-04T13:06:02;12.15;;;9.15;;
74523;SDS011;63074;44.696;10.358;2023-06-04T13:08:29;9.82;;;8.57;;
74523;SDS011;63074;44.696;10.358;2023-06-04T13:10:55;9.95;;;8.25;;
74523;SDS011;63074;44.696;10.358;2023-06-04T13:13:22;11.82;;;8.82;;
74523;SDS011;63074;44.696;10.358;2023-06-04T13:15:48;11.07;;;7.85;;
74523;SDS011;63074;44.696;10.358;2023-06-04T13:18:14;9.93;;;8.82;;
74523;SDS011;63074;44.696;10.358;2023-06-04T13:20:41;10.52;;;8.13;;
74523;SDS011;63074;44.696;10.358;2023-06-04T13:23:07;10.27;;;7.82;;
74523;SDS011;63074;44.696;10.358;2023-06-04T13:25:34;10.57;;;8.63;;
74523;SDS011;63074;44.696;10.358;2023-06-04T13:28:04;10.27;;;8.63;;
74523;SDS011;63074;44.696;10.358;2023-06-04T13:30:30;9.70;;;8.25;;
74523;SDS011;63074;44.696;10.358;2023-06-04T13:32:56;9.07;;;8.15;;
74523;SDS011;63074;44.696;10.358;2023-06-04T13:35:23;10.88;;;7.75;;
74523;SDS011;63074;44.696;10.358;2023-06-04T13:37:49;9.98;;;8.15;;
74523;SDS011;63074;44.696;10.358;2023-06-04T13:40:16;10.40;;;7.82;;
74523;SDS011;63074;44.696;10.358;2023-06-04T13:42:42;9.98;;;7.90;;
74523;SDS011;63074;44.696;10.358;2023-06-04T13:45:08;10.60;;;8.15;;
74523;SDS011;63074;44.696;10.358;2023-06-04T13:47:35;12.30;;;8.75;;
74523;SDS011;63074;44.696;10.358;2023-06-04T13:50:01;11.88;;;8.15;;
74523;SDS011;63074;44.696;10.358;2023-06-04T13:52:29;27.92;;;8.10;;
74523;SDS011;63074;44.696;10.358;2023-06-04T13:54:55;9.32;;;7.07;;
74523;SDS011;63074;44.696;10.358;2023-06-04T13:57:24;12.82;;;7.00;;
74523;SDS011;63074;44.696;10.358;2023-06-04T13:59:50;11.10;;;8.15;;
74523;SDS011;63074;44.696;10.358;2023-06-04T14:02:17;9.50;;;7.35;;
74523;SDS011;63074;44.696;10.358;2023-06-04T14:04:43;9.60;;;8.10;;
74523;SDS011;63074;44.696;10.358;2023-06-04T14:07:09;11.68;;;8.20;;
74523;SDS011;63074;44.696;10.358;2023-06-04T14:09:35;13.00;;;8.57;;
74523;SDS011;63074;44.696;10.358;2023-06-04T14:12:02;10.02;;;8.40;;
74523;SDS011;63074;44.696;10.358;2023-06-04T14:14:29;9.68;;;7.32;;
74523;SDS011;63074;44.696;10.358;2023-06-04T14:17:04;11.77;;;8.27;;
74523;SDS011;63074;44.696;10.358;2023-06-04T14:19:34;11.55;;;8.32;;
74523;SDS011;63074;44.696;10.358;2023-06-04T14:24:26;9.77;;;8.50;;
74523;SDS011;63074;44.696;10.358;2023-06-04T14:26:53;10.60;;;9.00;;
74523;SDS011;63074;44.696;10.358;2023-06-04T14:29:19;17.55;;;9.70;;
74523;SDS011;63074;44.696;10.358;2023-06-04T14:31:45;11.05;;;8.23;;
74523;SDS011;63074;44.696;10.358;2023-06-04T14:34:11;11.40;;;8.10;;
74523;SDS011;63074;44.696;10.358;2023-06-04T14:36:38;10.98;;;9.07;;